sensor_id;sensor_type;location;lat;lon;timestamp;pressure;altitude;pressure_sealevel;temperature;humidity
36260;BME280;22296;50.824;5.644;2023-04-23T00:01:55;99908.00;;;15.09;61.10
36260;BME280;22296;50.824;5.644;2023-04-23T00:04:25;99900.00;;;15.08;61.18
36260;BME280;22296;50.824;5.644;2023-04-23T00:06:52;99906.38;;;15.08;61.09
36260;BME280;22296;50.824;5.644;2023-04-23T00:09:21;99902.47;;;15.09;60.92
36260;BME280;22296;50.824;5.644;2023-04-23T00:11:48;99900.81;;;15.08;61.46
36260;BME280;22296;50.824;5.644;2023-04-23T00:14:15;99896.78;;;15.06;61.21
36260;BME280;22296;50.824;5.644;2023-04-23T00:16:42;99890.41;;;15.05;61.07
36260;BME280;22296;50.824;5.644;2023-04-23T00:19:09;99891.22;;;15.06;61.17
36260;BME280;22296;50.824;5.644;2023-04-23T00:21:35;99883.22;;;15.04;61.43
36260;BME280;22296;50.824;5.644;2023-04-23T00:24:02;99890.41;;;15.05;61.14
36260;BME280;22296;50.824;5.644;2023-04-23T00:26:29;99885.66;;;15.06;61.37
36260;BME280;22296;50.824;5.644;2023-04-23T00:28:56;99890.41;;;15.05;61.16
36260;BME280;22296;50.824;5.644;2023-04-23T00:31:23;99884.38;;;15.03;61.40
36260;BME280;22296;50.824;5.644;2023-04-23T00:33:52;99890.41;;;15.05;61.36
36260;BME280;22296;50.824;5.644;2023-04-23T00:36:19;99885.66;;;15.06;61.36
36260;BME280;22296;50.824;5.644;2023-04-23T00:38:47;99885.66;;;15.06;61.32
36260;BME280;22296;50.824;5.644;2023-04-23T00:41:14;99882.06;;;15.05;61.05
36260;BME280;22296;50.824;5.644;2023-04-23T00:43:41;99884.38;;;15.03;61.77
36260;BME280;22296;50.824;5.644;2023-04-23T00:46:09;99872.94;;;15.05;61.06
36260;BME280;22296;50.824;5.644;2023-04-23T00:48:36;99875.25;;;15.03;61.30
36260;BME280;22296;50.824;5.644;2023-04-23T00:51:06;99879.63;;;15.04;61.17
36260;BME280;22296;50.824;5.644;2023-04-23T00:53:33;99868.50;;;15.04;61.11
36260;BME280;22296;50.824;5.644;2023-04-23T00:56:03;99872.09;;;15.04;61.03
36260;BME280;22296;50.824;5.644;2023-04-23T00:58:31;99870.50;;;15.03;61.23
36260;BME280;22296;50.824;5.644;2023-04-23T01:00:58;99861.00;;;15.04;61.31
36260;BME280;22296;50.824;5.644;2023-04-23T01:03:25;99863.31;;;15.02;61.53
36260;BME280;22296;50.824;5.644;2023-04-23T01:05:53;99868.88;;;15.02;61.35
36260;BME280;22296;50.824;5.644;2023-04-23T01:08:20;99859.41;;;15.03;61.33
36260;BME280;22296;50.824;5.644;2023-04-23T01:10:49;99861.69;;;15.01;61.36
36260;BME280;22296;50.824;5.644;2023-04-23T01:13:16;99858.13;;;15.01;61.62
36260;BME280;22296;50.824;5.644;2023-04-23T01:15:44;99856.94;;;15.02;61.44
36260;BME280;22296;50.824;5.644;2023-04-23T01:18:11;99856.94;;;15.02;61.42
36260;BME280;22296;50.824;5.644;2023-04-23T01:20:38;99856.13;;;15.01;61.57
36260;BME280;22296;50.824;5.644;2023-04-23T01:23:05;99850.59;;;15.01;61.69
36260;BME280;22296;50.824;5.644;2023-04-23T01:25:33;99847.03;;;15.01;61.55
36260;BME280;22296;50.824;5.644;2023-04-23T01:28:00;99850.59;;;15.01;61.34
36260;BME280;22296;50.824;5.644;2023-04-23T01:30:27;99848.97;;;15.00;61.57
36260;BME280;22296;50.824;5.644;2023-04-23T01:32:55;99852.91;;;14.99;61.94
36260;BME280;22296;50.824;5.644;2023-04-23T01:35:23;99847.34;;;14.99;61.75
36260;BME280;22296;50.824;5.644;2023-04-23T01:37:50;99845.72;;;14.98;61.71
36260;BME280;22296;50.824;5.644;2023-04-23T01:40:19;99850.50;;;14.98;61.61
36260;BME280;22296;50.824;5.644;2023-04-23T01:42:47;99848.03;;;14.96;61.77
36260;BME280;22296;50.824;5.644;2023-04-23T01:45:14;99843.31;;;14.97;61.78
36260;BME280;22296;50.824;5.644;2023-04-23T01:47:41;99844.94;;;14.98;61.80
36260;BME280;22296;50.824;5.644;2023-04-23T01:50:08;99839.72;;;14.96;62.10
36260;BME280;22296;50.824;5.644;2023-04-23T01:52:35;99849.66;;;14.97;61.58
36260;BME280;22296;50.824;5.644;2023-04-23T01:55:02;99842.03;;;14.94;61.91
36260;BME280;22296;50.824;5.644;2023-04-23T01:57:29;99834.50;;;14.95;61.78
36260;BME280;22296;50.824;5.644;2023-04-23T02:00:07;99843.31;;;14.97;61.81
36260;BME280;22296;50.824;5.644;2023-04-23T02:02:41;99836.59;;;14.98;61.31
36260;BME280;22296;50.824;5.644;2023-04-23T02:05:12;99838.78;;;15.04;61.11
36260;BME280;22296;50.824;5.644;2023-04-23T02:07:40;99840.41;;;15.05;61.14
36260;BME280;22296;50.824;5.644;2023-04-23T02:10:07;99841.25;;;15.06;61.21
36260;BME280;22296;50.824;5.644;2023-04-23T02:12:36;99837.19;;;15.03;61.60
36260;BME280;22296;50.824;5.644;2023-04-23T02:15:04;99839.47;;;15.01;61.61
36260;BME280;22296;50.824;5.644;2023-04-23T02:17:32;99839.38;;;14.98;61.76
36260;BME280;22296;50.824;5.644;2023-04-23T02:19:59;99834.16;;;14.96;62.00
36260;BME280;22296;50.824;5.644;2023-04-23T02:22:26;99830.47;;;14.92;62.01
36260;BME280;22296;50.824;5.644;2023-04-23T02:24:54;99835.19;;;14.92;62.16
36260;BME280;22296;50.824;5.644;2023-04-23T02:27:21;99838.31;;;14.90;62.21
36260;BME280;22296;50.824;5.644;2023-04-23T02:29:48;99831.16;;;14.89;62.14
36260;BME280;22296;50.824;5.644;2023-04-23T02:32:14;99840.63;;;14.88;62.30
36260;BME280;22296;50.824;5.644;2023-04-23T02:34:41;99839.13;;;14.91;62.05
36260;BME280;22296;50.824;5.644;2023-04-23T02:37:09;99834.25;;;14.88;61.95
36260;BME280;22296;50.824;5.644;2023-04-23T02:39:36;99833.44;;;14.87;62.01
36260;BME280;22296;50.824;5.644;2023-04-23T02:42:04;99831.84;;;14.86;62.05
36260;BME280;22296;50.824;5.644;2023-04-23T02:44:32;99834.25;;;14.88;61.84
36260;BME280;22296;50.824;5.644;2023-04-23T02:46:59;99841.31;;;14.85;61.94
36260;BME280;22296;50.824;5.644;2023-04-23T02:49:26;99841.31;;;14.85;61.92
36260;BME280;22296;50.824;5.644;2023-04-23T02:51:52;99837.38;;;14.86;61.86
36260;BME280;22296;50.824;5.644;2023-04-23T02:54:19;99839.00;;;14.87;61.86
36260;BME280;22296;50.824;5.644;2023-04-23T02:56:46;99837.38;;;14.86;61.70
36260;BME280;22296;50.824;5.644;2023-04-23T02:59:13;99834.94;;;14.84;61.68
36260;BME280;22296;50.824;5.644;2023-04-23T03:01:40;99839.69;;;14.84;61.73
36260;BME280;22296;50.824;5.644;2023-04-23T03:04:09;99838.91;;;14.83;61.79
36260;BME280;22296;50.824;5.644;2023-04-23T03:06:37;99830.88;;;14.82;61.71
36260;BME280;22296;50.824;5.644;2023-04-23T03:09:04;99836.44;;;14.82;61.72
36260;BME280;22296;50.824;5.644;2023-04-23T03:11:32;99830.88;;;14.82;61.86
36260;BME280;22296;50.824;5.644;2023-04-23T03:14:00;99826.97;;;14.83;61.69
36260;BME280;22296;50.824;5.644;2023-04-23T03:16:28;99826.47;;;14.81;61.58
36260;BME280;22296;50.824;5.644;2023-04-23T03:18:56;99823.72;;;14.81;61.60
36260;BME280;22296;50.824;5.644;2023-04-23T03:21:23;99827.66;;;14.80;61.73
36260;BME280;22296;50.824;5.644;2023-04-23T03:23:49;99826.03;;;14.79;61.53
36260;BME280;22296;50.824;5.644;2023-04-23T03:26:16;99822.94;;;14.80;61.54
36260;BME280;22296;50.824;5.644;2023-04-23T03:28:43;99818.16;;;14.81;61.71
36260;BME280;22296;50.824;5.644;2023-04-23T03:31:10;99821.28;;;14.79;61.50
36260;BME280;22296;50.824;5.644;2023-04-23T03:33:37;99826.84;;;14.79;61.53
36260;BME280;22296;50.824;5.644;2023-04-23T03:36:04;99823.25;;;14.79;61.50
36260;BME280;22296;50.824;5.644;2023-04-23T03:38:31;99825.22;;;14.78;61.58
36260;BME280;22296;50.824;5.644;2023-04-23T03:40:59;99815.28;;;14.77;61.60
36260;BME280;22296;50.824;5.644;2023-04-23T03:43:27;99814.47;;;14.77;61.55
36260;BME280;22296;50.824;5.644;2023-04-23T03:46:02;99806.13;;;14.77;61.39
36260;BME280;22296;50.824;5.644;2023-04-23T03:48:33;99806.13;;;14.77;61.32
36260;BME280;22296;50.824;5.644;2023-04-23T03:51:04;99811.69;;;14.77;61.52
36260;BME280;22296;50.824;5.644;2023-04-23T03:53:40;99815.16;;;14.74;61.40
36260;BME280;22296;50.824;5.644;2023-04-23T03:56:27;99816.44;;;14.76;61.37
36260;BME280;22296;50.824;5.644;2023-04-23T03:59:08;99814.78;;;14.75;61.60
36260;BME280;22296;50.824;5.644;2023-04-23T04:01:35;99825.09;;;14.75;61.32
36260;BME280;22296;50.824;5.644;2023-04-23T04:04:02;99823.47;;;14.74;61.25
36260;BME280;22296;50.824;5.644;2023-04-23T04:06:31;99824.28;;;14.74;61.40
36260;BME280;22296;50.824;5.644;2023-04-23T04:08:58;99824.28;;;14.74;61.47
36260;BME280;22296;50.824;5.644;2023-04-23T04:11:25;99817.94;;;14.74;61.40
36260;BME280;22296;50.824;5.644;2023-04-23T04:13:52;99818.75;;;14.74;61.42
36260;BME280;22296;50.824;5.644;2023-04-23T04:16:19;99819.56;;;14.75;61.30
36260;BME280;22296;50.824;5.644;2023-04-23T04:18:45;99819.56;;;14.75;61.29
36260;BME280;22296;50.824;5.644;2023-04-23T04:21:12;99823.47;;;14.74;61.26
36260;BME280;22296;50.824;5.644;2023-04-23T04:23:39;99821.84;;;14.73;61.25
36260;BME280;22296;50.824;5.644;2023-04-23T04:26:06;99829.03;;;14.74;61.33
36260;BME280;22296;50.824;5.644;2023-04-23T04:28:33;99825.44;;;14.73;61.26
36260;BME280;22296;50.824;5.644;2023-04-23T04:31:03;99826.59;;;14.72;61.24
36260;BME280;22296;50.824;5.644;2023-04-23T04:33:31;99824.63;;;14.73;61.29
36260;BME280;22296;50.824;5.644;2023-04-23T04:35:58;99824.63;;;14.73;61.22
36260;BME280;22296;50.824;5.644;2023-04-23T04:38:26;99821.38;;;14.71;61.32
36260;BME280;22296;50.824;5.644;2023-04-23T04:40:54;99835.25;;;14.71;61.15
36260;BME280;22296;50.824;5.644;2023-04-23T04:43:24;99821.38;;;14.71;61.16
36260;BME280;22296;50.824;5.644;2023-04-23T04:45:52;99829.72;;;14.71;61.29
36260;BME280;22296;50.824;5.644;2023-04-23T04:48:19;99822.53;;;14.70;61.29
36260;BME280;22296;50.824;5.644;2023-04-23T04:50:46;99833.63;;;14.70;61.28
36260;BME280;22296;50.824;5.644;2023-04-23T04:53:13;99830.03;;;14.69;61.18
36260;BME280;22296;50.824;5.644;2023-04-23T04:55:40;99837.56;;;14.69;61.21
36260;BME280;22296;50.824;5.644;2023-04-23T04:58:07;99832.03;;;14.69;61.26
36260;BME280;22296;50.824;5.644;2023-04-23T05:00:33;99833.63;;;14.70;61.15
36260;BME280;22296;50.824;5.644;2023-04-23T05:03:00;99830.41;;;14.68;61.24
36260;BME280;22296;50.824;5.644;2023-04-23T05:05:27;99832.03;;;14.69;61.14
36260;BME280;22296;50.824;5.644;2023-04-23T05:07:54;99832.03;;;14.69;61.21
36260;BME280;22296;50.824;5.644;2023-04-23T05:10:24;99838.72;;;14.68;61.14
36260;BME280;22296;50.824;5.644;2023-04-23T05:12:51;99835.94;;;14.68;61.05
36260;BME280;22296;50.824;5.644;2023-04-23T05:15:18;99837.09;;;14.67;61.19
36260;BME280;22296;50.824;5.644;2023-04-23T05:17:45;99842.63;;;14.67;61.08
36260;BME280;22296;50.824;5.644;2023-04-23T05:20:12;99838.25;;;14.66;61.22
36260;BME280;22296;50.824;5.644;2023-04-23T05:22:40;99838.25;;;14.66;61.19
36260;BME280;22296;50.824;5.644;2023-04-23T05:25:08;99844.63;;;14.66;61.22
36260;BME280;22296;50.824;5.644;2023-04-23T05:27:37;99843.81;;;14.66;61.06
36260;BME280;22296;50.824;5.644;2023-04-23T05:30:06;99843.81;;;14.66;60.97
36260;BME280;22296;50.824;5.644;2023-04-23T05:32:35;99847.41;;;14.66;61.04
36260;BME280;22296;50.824;5.644;2023-04-23T05:35:02;99849.38;;;14.66;61.31
36260;BME280;22296;50.824;5.644;2023-04-23T05:37:29;99847.72;;;14.65;61.24
36260;BME280;22296;50.824;5.644;2023-04-23T05:39:56;99846.09;;;14.64;61.11
36260;BME280;22296;50.824;5.644;2023-04-23T05:42:26;99842.19;;;14.65;61.12
36260;BME280;22296;50.824;5.644;2023-04-23T05:44:53;99846.91;;;14.64;61.13
36260;BME280;22296;50.824;5.644;2023-04-23T05:47:20;99842.19;;;14.65;61.03
36260;BME280;22296;50.824;5.644;2023-04-23T05:49:47;99843.81;;;14.66;61.12
36260;BME280;22296;50.824;5.644;2023-04-23T05:52:14;99840.53;;;14.64;61.18
36260;BME280;22296;50.824;5.644;2023-04-23T05:54:41;99835.00;;;14.64;61.21
36260;BME280;22296;50.824;5.644;2023-04-23T05:57:08;99841.72;;;14.63;61.16
36260;BME280;22296;50.824;5.644;2023-04-23T05:59:35;99834.22;;;14.63;61.15
36260;BME280;22296;50.824;5.644;2023-04-23T06:02:02;99833.41;;;14.63;61.15
36260;BME280;22296;50.824;5.644;2023-04-23T06:04:29;99829.81;;;14.62;61.11
36260;BME280;22296;50.824;5.644;2023-04-23T06:06:56;99833.41;;;14.63;60.98
36260;BME280;22296;50.824;5.644;2023-04-23T06:09:23;99835.00;;;14.64;61.09
36260;BME280;22296;50.824;5.644;2023-04-23T06:11:51;99829.44;;;14.64;60.99
36260;BME280;22296;50.824;5.644;2023-04-23T06:14:18;99828.31;;;14.65;60.93
36260;BME280;22296;50.824;5.644;2023-04-23T06:16:45;99831.06;;;14.65;60.92
36260;BME280;22296;50.824;5.644;2023-04-23T06:19:12;99829.56;;;14.67;60.93
36260;BME280;22296;50.824;5.644;2023-04-23T06:21:39;99829.25;;;14.69;61.02
36260;BME280;22296;50.824;5.644;2023-04-23T06:24:06;99826.47;;;14.69;61.00
36260;BME280;22296;50.824;5.644;2023-04-23T06:26:33;99820.94;;;14.69;60.83
36260;BME280;22296;50.824;5.644;2023-04-23T06:29:08;99818.16;;;14.69;60.92
36260;BME280;22296;50.824;5.644;2023-04-23T06:31:42;99813.75;;;14.68;60.90
36260;BME280;22296;50.824;5.644;2023-04-23T06:34:09;99823.69;;;14.69;61.01
36260;BME280;22296;50.824;5.644;2023-04-23T06:36:36;99830.03;;;14.69;60.69
36260;BME280;22296;50.824;5.644;2023-04-23T06:39:03;99835.59;;;14.69;60.87
36260;BME280;22296;50.824;5.644;2023-04-23T06:41:29;99824.16;;;14.71;60.67
36260;BME280;22296;50.824;5.644;2023-04-23T06:44:08;99816.97;;;14.70;60.73
36260;BME280;22296;50.824;5.644;2023-04-23T06:46:39;99820.25;;;14.72;60.77
36260;BME280;22296;50.824;5.644;2023-04-23T06:49:06;99811.44;;;14.70;60.62
36260;BME280;22296;50.824;5.644;2023-04-23T06:51:33;99807.50;;;14.71;60.79
36260;BME280;22296;50.824;5.644;2023-04-23T06:54:00;99806.69;;;14.70;60.86
36260;BME280;22296;50.824;5.644;2023-04-23T06:56:27;99803.59;;;14.72;60.95
36260;BME280;22296;50.824;5.644;2023-04-23T06:58:54;99805.19;;;14.73;60.73
36260;BME280;22296;50.824;5.644;2023-04-23T07:01:21;99794.91;;;14.73;60.54
36260;BME280;22296;50.824;5.644;2023-04-23T07:03:51;99797.34;;;14.75;60.50
36260;BME280;22296;50.824;5.644;2023-04-23T07:06:20;99791.09;;;14.78;60.40
36260;BME280;22296;50.824;5.644;2023-04-23T07:08:47;99799.41;;;14.78;60.37
36260;BME280;22296;50.824;5.644;2023-04-23T07:11:17;99803.00;;;14.78;60.43
36260;BME280;22296;50.824;5.644;2023-04-23T07:13:43;99801.72;;;14.76;60.40
36260;BME280;22296;50.824;5.644;2023-04-23T07:16:10;99799.91;;;14.80;60.33
36260;BME280;22296;50.824;5.644;2023-04-23T07:18:37;99790.41;;;14.81;59.94
36260;BME280;22296;50.824;5.644;2023-04-23T07:21:04;99786.84;;;14.80;60.51
36260;BME280;22296;50.824;5.644;2023-04-23T07:23:31;99784.06;;;14.80;60.38
36260;BME280;22296;50.824;5.644;2023-04-23T07:25:58;99787.63;;;14.81;60.39
36260;BME280;22296;50.824;5.644;2023-04-23T07:28:25;99776.53;;;14.81;60.37
36260;BME280;22296;50.824;5.644;2023-04-23T07:30:52;99786.47;;;14.82;60.54
36260;BME280;22296;50.824;5.644;2023-04-23T07:33:19;99792.84;;;14.82;60.32
36260;BME280;22296;50.824;5.644;2023-04-23T07:35:46;99790.06;;;14.82;60.52
36260;BME280;22296;50.824;5.644;2023-04-23T07:38:12;99786.47;;;14.82;60.41
36260;BME280;22296;50.824;5.644;2023-04-23T07:40:39;99788.13;;;14.83;60.52
36260;BME280;22296;50.824;5.644;2023-04-23T07:43:06;99780.25;;;14.85;60.46
36260;BME280;22296;50.824;5.644;2023-04-23T07:45:33;99786.94;;;14.84;60.37
36260;BME280;22296;50.824;5.644;2023-04-23T07:48:00;99780.25;;;14.85;60.35
36260;BME280;22296;50.824;5.644;2023-04-23T07:50:28;99781.88;;;14.86;60.13
36260;BME280;22296;50.824;5.644;2023-04-23T07:52:55;99772.38;;;14.87;60.42
36260;BME280;22296;50.824;5.644;2023-04-23T07:55:22;99770.78;;;14.86;60.47
36260;BME280;22296;50.824;5.644;2023-04-23T07:57:48;99767.63;;;14.88;60.43
36260;BME280;22296;50.824;5.644;2023-04-23T08:00:15;99765.22;;;14.86;60.36
36260;BME280;22296;50.824;5.644;2023-04-23T08:02:42;99766.38;;;14.85;60.56
36260;BME280;22296;50.824;5.644;2023-04-23T08:05:09;99761.25;;;14.87;60.39
36260;BME280;22296;50.824;5.644;2023-04-23T08:07:37;99760.44;;;14.87;60.42
36260;BME280;22296;50.824;5.644;2023-04-23T08:10:04;99759.31;;;14.88;60.42
36260;BME280;22296;50.824;5.644;2023-04-23T08:12:32;99754.22;;;14.90;60.39
36260;BME280;22296;50.824;5.644;2023-04-23T08:15:01;99747.88;;;14.89;60.36
36260;BME280;22296;50.824;5.644;2023-04-23T08:17:35;99742.31;;;14.89;60.32
36260;BME280;22296;50.824;5.644;2023-04-23T08:20:03;99745.56;;;14.91;60.36
36260;BME280;22296;50.824;5.644;2023-04-23T08:22:32;99741.16;;;14.90;60.29
36260;BME280;22296;50.824;5.644;2023-04-23T08:24:58;99742.78;;;14.91;60.33
36260;BME280;22296;50.824;5.644;2023-04-23T08:27:25;99749.16;;;14.92;60.33
36260;BME280;22296;50.824;5.644;2023-04-23T08:29:52;99750.41;;;14.94;60.61
36260;BME280;22296;50.824;5.644;2023-04-23T08:32:19;99744.03;;;14.94;60.35
36260;BME280;22296;50.824;5.644;2023-04-23T08:34:46;99747.19;;;14.92;60.31
36260;BME280;22296;50.824;5.644;2023-04-23T08:37:12;99740.13;;;14.95;60.38
36260;BME280;22296;50.824;5.644;2023-04-23T08:39:55;99748.91;;;14.97;60.14
36260;BME280;22296;50.824;5.644;2023-04-23T08:45:04;99742.53;;;14.96;60.21
36260;BME280;22296;50.824;5.644;2023-04-23T08:47:31;99743.00;;;14.98;60.23
36260;BME280;22296;50.824;5.644;2023-04-23T08:49:59;99745.78;;;14.98;60.32
36260;BME280;22296;50.824;5.644;2023-04-23T08:52:32;99737.94;;;15.00;60.06
36260;BME280;22296;50.824;5.644;2023-04-23T08:55:03;99743.47;;;15.00;60.26
36260;BME280;22296;50.824;5.644;2023-04-23T08:57:30;99745.91;;;15.02;60.16
36260;BME280;22296;50.824;5.644;2023-04-23T08:59:59;99739.53;;;15.01;60.11
36260;BME280;22296;50.824;5.644;2023-04-23T09:02:26;99746.72;;;15.02;60.04
36260;BME280;22296;50.824;5.644;2023-04-23T09:04:54;99741.16;;;15.02;60.20
36260;BME280;22296;50.824;5.644;2023-04-23T09:07:22;99736.75;;;15.01;60.04
36260;BME280;22296;50.824;5.644;2023-04-23T09:09:49;99740.00;;;15.03;60.10
36260;BME280;22296;50.824;5.644;2023-04-23T09:12:16;99737.69;;;15.05;60.14
36260;BME280;22296;50.824;5.644;2023-04-23T09:14:43;99734.91;;;15.05;60.06
36260;BME280;22296;50.824;5.644;2023-04-23T09:17:10;99735.72;;;15.06;60.00
36260;BME280;22296;50.824;5.644;2023-04-23T09:19:38;99730.16;;;15.06;60.01
36260;BME280;22296;50.824;5.644;2023-04-23T09:22:06;99727.03;;;15.07;60.00
36260;BME280;22296;50.824;5.644;2023-04-23T09:24:33;99727.03;;;15.07;59.98
36260;BME280;22296;50.824;5.644;2023-04-23T09:27:00;99725.88;;;15.08;60.09
36260;BME280;22296;50.824;5.644;2023-04-23T09:29:29;99721.47;;;15.07;60.01
36260;BME280;22296;50.824;5.644;2023-04-23T09:32:05;99723.09;;;15.08;59.95
36260;BME280;22296;50.824;5.644;2023-04-23T09:34:36;99719.19;;;15.09;59.96
36260;BME280;22296;50.824;5.644;2023-04-23T09:37:05;99723.56;;;15.10;60.06
36260;BME280;22296;50.824;5.644;2023-04-23T09:39:33;99716.84;;;15.11;59.94
36260;BME280;22296;50.824;5.644;2023-04-23T09:42:03;99720.78;;;15.10;60.09
36260;BME280;22296;50.824;5.644;2023-04-23T09:44:31;99721.59;;;15.11;59.92
36260;BME280;22296;50.824;5.644;2023-04-23T09:47:08;99719.19;;;15.09;60.12
36260;BME280;22296;50.824;5.644;2023-04-23T09:49:45;99715.72;;;15.12;60.05
36260;BME280;22296;50.824;5.644;2023-04-23T09:52:13;99719.63;;;15.11;60.04
36260;BME280;22296;50.824;5.644;2023-04-23T09:54:41;99712.94;;;15.12;60.02
36260;BME280;22296;50.824;5.644;2023-04-23T09:57:08;99707.38;;;15.12;60.02
36260;BME280;22296;50.824;5.644;2023-04-23T09:59:37;99711.75;;;15.13;60.10
36260;BME280;22296;50.824;5.644;2023-04-23T10:02:14;99713.38;;;15.14;60.06
36260;BME280;22296;50.824;5.644;2023-04-23T10:04:41;99715.34;;;15.14;59.83
36260;BME280;22296;50.824;5.644;2023-04-23T10:07:08;99706.66;;;15.15;60.06
36260;BME280;22296;50.824;5.644;2023-04-23T10:09:42;99711.44;;;15.15;60.05
36260;BME280;22296;50.824;5.644;2023-04-23T10:12:09;99708.28;;;15.16;59.99
36260;BME280;22296;50.824;5.644;2023-04-23T10:14:56;99706.66;;;15.15;59.95
36260;BME280;22296;50.824;5.644;2023-04-23T10:17:25;99695.56;;;15.15;59.87
36260;BME280;22296;50.824;5.644;2023-04-23T10:19:53;99701.59;;;15.17;59.99
36260;BME280;22296;50.824;5.644;2023-04-23T10:22:21;99704.38;;;15.17;60.06
36260;BME280;22296;50.824;5.644;2023-04-23T10:24:52;99693.25;;;15.17;59.96
36260;BME280;22296;50.824;5.644;2023-04-23T10:27:27;99694.84;;;15.18;59.86
36260;BME280;22296;50.824;5.644;2023-04-23T10:30:14;99687.69;;;15.17;60.04
36260;BME280;22296;50.824;5.644;2023-04-23T10:32:41;99690.94;;;15.19;59.88
36260;BME280;22296;50.824;5.644;2023-04-23T10:35:09;99682.59;;;15.19;59.84
36260;BME280;22296;50.824;5.644;2023-04-23T10:37:37;99690.94;;;15.19;59.92
36260;BME280;22296;50.824;5.644;2023-04-23T10:40:18;99683.03;;;15.21;59.99
36260;BME280;22296;50.824;5.644;2023-04-23T10:42:48;99680.25;;;15.21;59.99
36260;BME280;22296;50.824;5.644;2023-04-23T10:45:17;99672.75;;;15.22;59.83
36260;BME280;22296;50.824;5.644;2023-04-23T10:47:47;99676.34;;;15.22;59.93
36260;BME280;22296;50.824;5.644;2023-04-23T10:50:27;99672.06;;;15.25;59.77
36260;BME280;22296;50.824;5.644;2023-04-23T10:52:55;99662.09;;;15.24;59.82
36260;BME280;22296;50.824;5.644;2023-04-23T10:55:28;99656.19;;;15.25;59.90
36260;BME280;22296;50.824;5.644;2023-04-23T11:00:47;99658.63;;;15.27;59.77
36260;BME280;22296;50.824;5.644;2023-04-23T11:03:39;99657.47;;;15.28;59.75
36260;BME280;22296;50.824;5.644;2023-04-23T11:06:17;99638.84;;;15.28;59.72
36260;BME280;22296;50.824;5.644;2023-04-23T11:08:51;99634.44;;;15.27;59.68
36260;BME280;22296;50.824;5.644;2023-04-23T11:11:38;99634.91;;;15.29;59.70
36260;BME280;22296;50.824;5.644;2023-04-23T11:14:12;99635.69;;;15.30;59.79
36260;BME280;22296;50.824;5.644;2023-04-23T11:16:41;99630.94;;;15.30;59.70
36260;BME280;22296;50.824;5.644;2023-04-23T11:19:10;99627.84;;;15.32;59.59
36260;BME280;22296;50.824;5.644;2023-04-23T11:24:38;99621.09;;;15.33;59.56
36260;BME280;22296;50.824;5.644;2023-04-23T11:27:15;99619.13;;;15.33;59.58
36260;BME280;22296;50.824;5.644;2023-04-23T11:29:44;99605.69;;;15.35;59.64
36260;BME280;22296;50.824;5.644;2023-04-23T11:32:14;99599.00;;;15.36;59.59
36260;BME280;22296;50.824;5.644;2023-04-23T11:34:43;99596.22;;;15.36;59.68
36260;BME280;22296;50.824;5.644;2023-04-23T11:37:12;99588.31;;;15.38;59.63
36260;BME280;22296;50.824;5.644;2023-04-23T11:39:39;99579.53;;;15.36;59.55
36260;BME280;22296;50.824;5.644;2023-04-23T11:42:11;99568.88;;;15.38;59.55
36260;BME280;22296;50.824;5.644;2023-04-23T11:44:40;99571.66;;;15.38;59.45
36260;BME280;22296;50.824;5.644;2023-04-23T11:47:09;99564.59;;;15.41;59.45
36260;BME280;22296;50.824;5.644;2023-04-23T11:49:38;99564.59;;;15.41;59.43
36260;BME280;22296;50.824;5.644;2023-04-23T11:52:05;99550.34;;;15.43;59.47
36260;BME280;22296;50.824;5.644;2023-04-23T11:54:32;99558.31;;;15.44;59.47
36260;BME280;22296;50.824;5.644;2023-04-23T11:57:00;99543.66;;;15.44;59.42
36260;BME280;22296;50.824;5.644;2023-04-23T11:59:28;99540.06;;;15.43;59.45
36260;BME280;22296;50.824;5.644;2023-04-23T12:01:57;99531.34;;;15.45;59.51
36260;BME280;22296;50.824;5.644;2023-04-23T12:04:26;99544.09;;;15.46;59.37
36260;BME280;22296;50.824;5.644;2023-04-23T12:06:53;99533.69;;;15.43;59.44
36260;BME280;22296;50.824;5.644;2023-04-23T12:09:22;99529.75;;;15.44;59.48
36260;BME280;22296;50.824;5.644;2023-04-23T12:11:50;99520.25;;;15.45;59.50
36260;BME280;22296;50.824;5.644;2023-04-23T12:14:18;99509.13;;;15.45;59.56
36260;BME280;22296;50.824;5.644;2023-04-23T12:16:47;99503.13;;;15.43;59.48
36260;BME280;22296;50.824;5.644;2023-04-23T12:19:28;99497.19;;;15.44;59.57
36260;BME280;22296;50.824;5.644;2023-04-23T12:22:00;99489.69;;;15.45;59.52
36260;BME280;22296;50.824;5.644;2023-04-23T12:24:29;99489.69;;;15.45;59.45
36260;BME280;22296;50.824;5.644;2023-04-23T12:26:57;99486.91;;;15.45;59.50
36260;BME280;22296;50.824;5.644;2023-04-23T12:29:29;99477.41;;;15.46;59.48
36260;BME280;22296;50.824;5.644;2023-04-23T12:31:57;99480.19;;;15.46;59.50
36260;BME280;22296;50.824;5.644;2023-04-23T12:34:25;99477.41;;;15.46;59.54
36260;BME280;22296;50.824;5.644;2023-04-23T12:36:53;99471.84;;;15.46;59.63
36260;BME280;22296;50.824;5.644;2023-04-23T12:39:25;99471.84;;;15.46;59.58
36260;BME280;22296;50.824;5.644;2023-04-23T12:41:55;99471.50;;;15.47;59.53
36260;BME280;22296;50.824;5.644;2023-04-23T12:44:23;99472.31;;;15.48;59.45
36260;BME280;22296;50.824;5.644;2023-04-23T12:46:57;99467.13;;;15.46;59.63
36260;BME280;22296;50.824;5.644;2023-04-23T12:49:25;99477.06;;;15.47;59.56
36260;BME280;22296;50.824;5.644;2023-04-23T12:51:54;99486.22;;;15.48;59.56
36260;BME280;22296;50.824;5.644;2023-04-23T12:54:24;99508.44;;;15.48;59.61
36260;BME280;22296;50.824;5.644;2023-04-23T12:56:51;99513.19;;;15.47;59.57
36260;BME280;22296;50.824;5.644;2023-04-23T12:59:18;99519.56;;;15.48;59.67
36260;BME280;22296;50.824;5.644;2023-04-23T13:01:45;99514.00;;;15.48;59.57
36260;BME280;22296;50.824;5.644;2023-04-23T13:04:12;99506.84;;;15.47;59.74
36260;BME280;22296;50.824;5.644;2023-04-23T13:06:40;99490.19;;;15.47;59.71
36260;BME280;22296;50.824;5.644;2023-04-23T13:09:08;99487.41;;;15.47;59.67
36260;BME280;22296;50.824;5.644;2023-04-23T13:11:37;99480.66;;;15.48;59.83
36260;BME280;22296;50.824;5.644;2023-04-23T13:14:04;99480.66;;;15.48;59.71
36260;BME280;22296;50.824;5.644;2023-04-23T13:16:31;99472.31;;;15.48;59.65